Terminal Aerodrome Forecast
Issued by NWS

Home | Current Version | Previous Version | Text Only | Print | Product List | Glossary Off
Versions: 1 2 3 4 5 6 7 8 9 10 11 12 13

861
FTUS43 KTOP 220520
TAFFOE
TAF
KFOE 220520Z 2206/2306 19013KT P6SM SKC WS010/22040KT
     FM221200 22012KT P6SM SKC
     FM221800 22006KT P6SM FEW080
     FM230100 02009KT P6SM VCTS SCT080CB=

USA.gov is the U.S. government's official web portal to all federal, state and local government web resources and services.